createdAt,value
2023-04-26T03:41:05.017Z,0.95
2023-04-26T03:44:08.525Z,1.20
2023-04-26T03:47:11.203Z,1.85
2023-04-26T03:50:14.347Z,1.40
2023-04-26T03:53:16.982Z,1.17
2023-04-26T03:56:20.023Z,1.00
2023-04-26T03:59:23.774Z,1.65
2023-04-26T04:02:26.995Z,1.65
2023-04-26T04:05:31.215Z,0.80
2023-04-26T04:08:34.212Z,1.50
2023-04-26T04:11:37.224Z,0.82
2023-04-26T04:14:39.982Z,1.02
2023-04-26T04:17:43.015Z,1.48
2023-04-26T04:20:46.445Z,1.10
2023-04-26T04:23:50.371Z,1.23
2023-04-26T04:29:56.361Z,1.25
2023-04-26T04:33:00.287Z,1.33
2023-04-26T04:36:03.563Z,1.98
2023-04-26T04:39:12.359Z,1.60
2023-04-26T04:42:16.059Z,1.20
2023-04-26T04:45:18.798Z,1.35
2023-04-26T04:48:30.390Z,1.33
2023-04-26T04:51:33.297Z,1.00
2023-04-26T04:54:36.286Z,1.58
2023-04-26T04:57:40.612Z,1.30
2023-04-26T05:00:47.010Z,1.67
2023-04-26T05:03:50.700Z,1.80
2023-04-26T05:06:54.160Z,1.70
2023-04-26T05:09:58.531Z,1.23
2023-04-26T05:16:04.486Z,2.30
2023-04-26T05:19:09.496Z,1.20
2023-04-26T05:22:21.177Z,1.92
2023-04-26T05:25:24.180Z,2.35
2023-04-26T05:28:28.000Z,2.67
2023-04-26T05:31:32.837Z,2.20
2023-04-26T05:34:36.631Z,1.50
2023-04-26T05:37:40.131Z,1.80
2023-04-26T05:40:43.368Z,2.20
2023-04-26T05:43:47.760Z,2.00
2023-04-26T05:46:50.688Z,1.83
2023-04-26T05:49:53.860Z,1.80
2023-04-26T05:52:56.466Z,1.70
2023-04-26T05:55:59.366Z,1.20
2023-04-26T05:59:02.244Z,1.85
2023-04-26T06:02:07.131Z,1.65
2023-04-26T06:05:10.793Z,1.75
2023-04-26T06:08:14.168Z,2.10
2023-04-26T06:11:17.186Z,1.52
2023-04-26T06:14:29.837Z,1.52
2023-04-26T06:17:34.077Z,1.60
2023-04-26T06:20:36.911Z,1.75
2023-04-26T06:23:41.851Z,2.00
2023-04-26T06:26:44.528Z,1.75
2023-04-26T06:29:47.758Z,1.75
2023-04-26T06:32:51.539Z,1.52
2023-04-26T06:35:54.478Z,1.30
2023-04-26T06:38:57.172Z,2.12
2023-04-26T06:42:03.608Z,1.27
2023-04-26T06:45:09.096Z,1.37
2023-04-26T06:48:12.213Z,1.52
2023-04-26T06:54:17.804Z,1.20
2023-04-26T06:57:20.500Z,1.08
2023-04-26T07:00:23.870Z,0.98
2023-04-26T07:03:27.026Z,1.55
2023-04-26T07:06:34.095Z,1.30
2023-04-26T07:09:37.046Z,1.05
2023-04-26T07:12:40.010Z,1.17
2023-04-26T07:15:42.713Z,1.25
2023-04-26T07:18:48.298Z,1.08
2023-04-26T07:21:51.050Z,1.20
2023-04-26T07:24:54.341Z,1.50
2023-04-26T07:27:57.073Z,1.15
2023-04-26T07:31:01.660Z,1.00
2023-04-26T07:34:04.369Z,1.17
2023-04-26T07:37:07.208Z,1.33
2023-04-26T07:40:11.544Z,1.00
2023-04-26T07:43:15.653Z,1.00
2023-04-26T07:46:18.667Z,1.00
2023-04-26T07:49:21.775Z,1.23
2023-04-26T07:52:24.475Z,0.82
2023-04-26T07:55:27.500Z,0.88
2023-04-26T07:58:30.282Z,1.08
2023-04-26T08:01:33.685Z,1.10
2023-04-26T08:04:36.988Z,0.98
2023-04-26T08:07:40.284Z,0.80
2023-04-26T08:10:43.139Z,0.93
2023-04-26T08:13:46.327Z,0.90
2023-04-26T08:16:49.417Z,0.90
2023-04-26T08:19:52.114Z,1.17
2023-04-26T08:22:58.463Z,0.62
2023-04-26T08:26:01.456Z,0.93
2023-04-26T08:32:07.259Z,1.12
2023-04-26T08:35:10.741Z,0.60
2023-04-26T08:38:13.525Z,0.90
2023-04-26T08:41:22.532Z,0.70
2023-04-26T08:44:25.698Z,1.20
2023-04-26T08:47:36.501Z,0.95
2023-04-26T08:50:40.745Z,0.90
2023-04-26T08:53:44.116Z,1.42
2023-04-26T08:56:47.884Z,0.80
2023-04-26T08:59:52.790Z,0.90
2023-04-26T09:02:55.746Z,0.90
2023-04-26T09:06:01.141Z,1.58
2023-04-26T09:09:29.725Z,0.98
2023-04-26T09:12:32.770Z,0.93
2023-04-26T09:15:35.832Z,1.20
2023-04-26T09:21:50.012Z,0.90
2023-04-26T09:24:53.065Z,0.90
2023-04-26T09:27:55.974Z,1.20
2023-04-26T09:30:59.150Z,1.10
2023-04-26T09:34:01.822Z,1.15
2023-04-26T09:37:04.872Z,0.80
2023-04-26T09:40:19.558Z,0.93
2023-04-26T09:43:23.063Z,0.93
2023-04-26T09:46:37.087Z,1.05
2023-04-26T09:49:49.129Z,1.20
2023-04-26T09:52:51.893Z,0.68
2023-04-26T09:59:00.690Z,1.00
2023-04-26T10:02:03.908Z,1.10
2023-04-26T10:05:07.639Z,0.90
2023-04-26T10:08:10.473Z,0.57
2023-04-26T10:11:14.077Z,1.23
2023-04-26T10:17:21.043Z,0.70
2023-04-26T10:20:27.145Z,0.88
2023-04-26T10:23:30.188Z,0.90
2023-04-26T10:26:54.972Z,0.80
2023-04-26T10:29:59.270Z,0.70
2023-04-26T10:33:02.273Z,0.80
2023-04-26T10:36:14.494Z,0.82
2023-04-26T10:39:30.776Z,0.80
2023-04-26T10:42:33.949Z,0.70
2023-04-26T10:45:37.369Z,0.60
2023-04-26T10:48:40.566Z,1.15
2023-04-26T10:52:16.297Z,0.65
2023-04-26T10:55:40.030Z,0.70
2023-04-26T10:58:46.349Z,0.95
2023-04-26T11:01:49.530Z,0.60
2023-04-26T11:04:53.090Z,0.77
2023-04-26T11:08:06.701Z,0.60
2023-04-26T11:11:12.752Z,0.77
2023-04-26T11:14:16.448Z,0.80
2023-04-26T11:17:20.402Z,0.68
2023-04-26T11:20:23.681Z,0.68
2023-04-26T11:26:37.085Z,0.82
2023-04-26T11:29:39.730Z,1.10
2023-04-26T11:35:47.613Z,0.73
2023-04-26T11:38:51.697Z,0.70
2023-04-26T11:42:11.498Z,0.70
2023-04-26T11:45:18.766Z,0.80
2023-04-26T11:48:21.682Z,0.90
2023-04-26T11:51:25.965Z,1.10
2023-04-26T11:54:30.329Z,0.70
2023-04-26T11:57:34.298Z,1.00
2023-04-26T12:00:37.056Z,0.80
2023-04-26T12:03:40.488Z,0.75
2023-04-26T12:06:45.150Z,0.80
2023-04-26T12:09:48.354Z,0.82
2023-04-26T12:12:51.837Z,0.80
2023-04-26T12:15:54.821Z,0.60
2023-04-26T12:18:58.207Z,0.93
2023-04-26T12:22:01.599Z,1.00
2023-04-26T12:25:06.417Z,0.70
2023-04-26T12:28:13.754Z,0.73
2023-04-26T12:31:16.874Z,0.60
2023-04-26T12:34:19.905Z,0.60
2023-04-26T12:37:22.719Z,0.57
2023-04-26T12:40:26.102Z,0.65
2023-04-26T12:46:31.454Z,0.70
2023-04-26T12:49:34.497Z,0.75
2023-04-26T12:52:37.441Z,0.70
2023-04-26T12:55:40.303Z,0.90
2023-04-26T12:58:43.439Z,0.73
2023-04-26T13:04:49.232Z,0.98
2023-04-26T13:07:52.116Z,0.52
2023-04-26T13:10:55.232Z,0.70
2023-04-26T13:13:57.988Z,1.00
2023-04-26T13:17:01.949Z,0.70
2023-04-26T13:20:06.414Z,0.65
2023-04-26T13:23:11.647Z,0.70
2023-04-26T13:26:15.222Z,0.62
2023-04-26T13:29:18.525Z,0.57
2023-04-26T13:32:21.998Z,1.02
2023-04-26T13:35:25.775Z,0.70
2023-04-26T13:38:32.845Z,0.90
2023-04-26T13:41:36.912Z,0.93
2023-04-26T13:44:39.987Z,0.82
2023-04-26T13:47:43.020Z,0.70
2023-04-26T13:50:46.181Z,0.62
2023-04-26T13:53:49.178Z,0.82
2023-04-26T13:56:52.776Z,0.80
2023-04-26T13:59:55.961Z,0.65
2023-04-26T14:02:59.110Z,0.47
2023-04-26T14:06:03.573Z,0.80
2023-04-26T14:09:06.982Z,0.65
2023-04-26T14:12:10.457Z,0.70
2023-04-26T14:15:13.091Z,0.50
2023-04-26T14:18:17.374Z,1.20
2023-04-26T14:21:20.380Z,0.57
2023-04-26T14:24:23.487Z,0.57
2023-04-26T14:27:26.175Z,0.75
2023-04-26T14:30:29.285Z,0.70
2023-04-26T14:33:32.168Z,0.77
2023-04-26T14:36:35.154Z,0.60
2023-04-26T14:39:37.786Z,0.70
2023-04-26T14:42:45.902Z,0.50
2023-04-26T14:45:51.301Z,0.60
2023-04-26T14:48:55.257Z,0.70
2023-04-26T14:51:57.948Z,0.60
2023-04-26T14:58:03.305Z,0.70
2023-04-26T15:04:09.398Z,0.82
2023-04-26T15:07:21.063Z,0.90
2023-04-26T15:10:31.629Z,1.35
2023-04-26T15:13:34.803Z,0.75
2023-04-26T15:22:43.378Z,0.50
2023-04-26T15:25:46.538Z,0.55
2023-04-26T15:28:49.825Z,0.62
2023-04-26T15:31:52.994Z,0.68
2023-04-26T15:34:55.850Z,0.40
